Time;durP1;ratioP1;P1;durP2;ratioP2;P2;SDS_P1;SDS_P2;PMS_P1;PMS_P2;Temp;Humidity;BMP_temperature;BMP_pressure;BME280_temperature;BME280_humidity;BME280_pressure;Samples;Min_cycle;Max_cycle;Signal;HPM_P1;HPM_P2
2021/05/18 00:01:34;;;;;;;21.30;12.80;;;12.10;79.10;;;;;;5077171;28;20044;-77
2021/05/18 00:04:00;;;;;;;18.77;12.68;;;12.10;79.10;;;;;;5098398;28;20036;-75
2021/05/18 00:06:26;;;;;;;19.48;13.15;;;12.10;79.10;;;;;;5097141;28;20044;-78
2021/05/18 00:11:44;;;;;;;20.45;13.55;;;12.10;79.20;;;;;;5077730;28;20119;-76
2021/05/18 00:14:10;;;;;;;20.17;12.45;;;12.10;79.10;;;;;;5078185;28;20481;-77
2021/05/18 00:16:36;;;;;;;18.27;12.02;;;12.10;79.10;;;;;;5078754;28;20041;-76
2021/05/18 00:19:06;;;;;;;19.25;12.95;;;12.00;79.00;;;;;;5078175;28;20044;-78
2021/05/18 00:21:32;;;;;;;19.85;12.93;;;12.00;78.90;;;;;;5079404;28;20037;-77
2021/05/18 00:23:58;;;;;;;21.02;12.57;;;12.00;79.10;;;;;;5085828;28;20032;-78
2021/05/18 00:26:24;;;;;;;22.88;12.95;;;12.00;79.10;;;;;;5096581;28;20032;-83
2021/05/18 00:28:49;;;;;;;19.15;12.15;;;11.90;79.10;;;;;;5079887;28;20050;-77
2021/05/18 00:31:15;;;;;;;16.90;11.80;;;11.90;79.10;;;;;;5096239;28;20125;-76
2021/05/18 00:33:43;;;;;;;18.55;12.18;;;11.90;79.20;;;;;;5094009;28;20454;-77
2021/05/18 00:36:13;;;;;;;19.48;12.73;;;11.90;79.20;;;;;;5111116;28;20040;-78
2021/05/18 00:38:42;;;;;;;21.38;13.02;;;11.80;79.20;;;;;;5095908;28;20568;-77
2021/05/18 00:41:09;;;;;;;18.67;12.85;;;11.80;79.30;;;;;;5096184;28;20040;-78
2021/05/18 00:43:35;;;;;;;19.20;12.77;;;11.80;79.20;;;;;;5078623;28;20052;-77
2021/05/18 00:46:01;;;;;;;20.55;12.55;;;11.80;79.30;;;;;;5096459;28;20115;-77
2021/05/18 00:48:27;;;;;;;19.45;12.30;;;11.80;79.30;;;;;;5097116;28;20492;-82
2021/05/18 00:50:58;;;;;;;22.92;12.80;;;11.80;79.30;;;;;;5112594;28;20044;-77
2021/05/18 00:53:24;;;;;;;22.33;14.32;;;11.70;79.30;;;;;;5095936;28;20040;-76
2021/05/18 00:56:21;;;;;;;19.35;13.30;;;11.70;79.40;;;;;;5112110;28;20066;-77
2021/05/18 00:58:46;;;;;;;21.00;13.10;;;11.70;79.40;;;;;;5096817;28;20149;-77
2021/05/18 01:01:20;;;;;;;20.20;13.88;;;11.70;79.40;;;;;;5095487;28;20146;-77
2021/05/18 01:03:47;;;;;;;21.38;13.50;;;11.70;79.50;;;;;;5078728;28;20113;-75
2021/05/18 01:06:29;;;;;;;20.48;13.98;;;11.60;79.50;;;;;;5095242;28;20067;-75
2021/05/18 01:08:58;;;;;;;18.90;12.73;;;11.60;79.60;;;;;;5093789;28;20064;-75
2021/05/18 01:11:28;;;;;;;22.60;13.77;;;11.60;79.60;;;;;;5093948;28;20044;-77
2021/05/18 01:13:57;;;;;;;21.85;14.15;;;11.50;79.60;;;;;;5094220;28;20122;-77
2021/05/18 01:16:24;;;;;;;23.20;14.15;;;11.50;79.60;;;;;;5078557;28;20051;-76
2021/05/18 01:18:50;;;;;;;20.77;13.77;;;11.50;79.70;;;;;;5094427;28;20236;-76
2021/05/18 01:21:16;;;;;;;21.70;13.82;;;11.50;79.70;;;;;;5096181;28;20444;-77
2021/05/18 01:23:42;;;;;;;20.85;13.80;;;11.40;79.70;;;;;;5094566;28;20041;-77
2021/05/18 01:26:08;;;;;;;22.33;14.32;;;11.40;79.80;;;;;;5061937;28;20048;-76
2021/05/18 01:28:34;;;;;;;22.70;13.20;;;11.40;79.90;;;;;;5111870;28;20044;-85
2021/05/18 01:31:01;;;;;;;20.42;14.23;;;11.40;80.00;;;;;;5096102;28;20543;-77
2021/05/18 01:33:27;;;;;;;23.90;14.45;;;11.30;80.00;;;;;;5094641;28;20040;-77
2021/05/18 01:35:57;;;;;;;20.48;14.18;;;11.30;80.10;;;;;;5077373;28;20044;-78
2021/05/18 01:38:29;;;;;;;24.02;14.45;;;11.30;80.10;;;;;;5096467;28;20476;-76
2021/05/18 01:43:39;;;;;;;21.67;15.00;;;11.20;80.10;;;;;;5094531;28;20199;-78
2021/05/18 01:46:05;;;;;;;22.48;14.38;;;11.20;80.20;;;;;;5094899;28;20052;-77
2021/05/18 01:48:35;;;;;;;25.95;15.88;;;11.20;80.30;;;;;;5094972;28;20048;-77
2021/05/18 01:51:01;;;;;;;25.60;15.65;;;11.20;80.40;;;;;;5078556;28;20426;-81
2021/05/18 01:53:27;;;;;;;22.33;15.40;;;11.20;80.30;;;;;;5078033;28;20044;-76
2021/05/18 01:56:15;;;;;;;22.48;15.23;;;11.20;80.40;;;;;;5091188;28;20066;-77
2021/05/18 01:58:41;;;;;;;22.75;14.40;;;11.10;80.30;;;;;;5090059;28;20033;-78
2021/05/18 02:01:07;;;;;;;24.00;15.18;;;11.10;80.40;;;;;;5075825;28;20040;-77
2021/05/18 02:03:33;;;;;;;24.83;15.65;;;11.10;80.40;;;;;;5077289;28;20036;-78
2021/05/18 02:05:58;;;;;;;23.40;16.52;;;11.10;80.40;;;;;;5095428;28;20350;-77
2021/05/18 02:08:27;;;;;;;22.85;15.95;;;11.00;80.30;;;;;;5094647;28;20063;-77
2021/05/18 02:10:53;;;;;;;22.38;14.73;;;11.00;80.40;;;;;;5094243;28;20044;-77
2021/05/18 02:13:19;;;;;;;24.52;16.00;;;11.00;80.40;;;;;;5095121;28;20036;-77
2021/05/18 02:15:57;;;;;;;23.05;15.27;;;11.00;80.50;;;;;;5093663;28;20044;-77
2021/05/18 02:26:21;;;;;;;26.85;15.18;;;10.90;80.50;;;;;;5079970;28;20143;-76
2021/05/18 02:28:46;;;;;;;23.35;15.32;;;10.80;80.40;;;;;;5093712;28;20051;-78
2021/05/18 02:31:12;;;;;;;22.77;15.52;;;10.80;80.50;;;;;;5094324;28;20040;-77
2021/05/18 02:33:38;;;;;;;23.88;14.55;;;10.80;80.50;;;;;;5093993;28;20082;-77
2021/05/18 02:36:04;;;;;;;22.02;13.85;;;10.70;80.30;;;;;;5093220;28;20047;-77
2021/05/18 02:38:30;;;;;;;23.98;14.52;;;10.70;80.40;;;;;;5095138;28;20048;-77
2021/05/18 02:40:56;;;;;;;20.50;14.90;;;10.70;80.50;;;;;;5093386;28;20043;-77
2021/05/18 02:43:26;;;;;;;23.20;15.43;;;10.70;80.50;;;;;;5110876;28;20480;-76
2021/05/18 02:51:26;;;;;;;26.20;15.93;;;10.60;80.50;;;;;;5095153;28;20043;-77
2021/05/18 02:53:51;;;;;;;25.92;15.15;;;10.60;80.50;;;;;;5093861;28;20488;-77
2021/05/18 02:58:54;;;;;;;23.95;15.95;;;10.50;80.50;;;;;;5094010;28;20040;-76
2021/05/18 03:01:19;;;;;;;20.42;14.32;;;10.50;80.60;;;;;;5095521;28;20044;-77
2021/05/18 03:03:45;;;;;;;22.98;15.45;;;10.50;80.60;;;;;;5077180;28;20044;-84
2021/05/18 03:06:11;;;;;;;24.23;16.42;;;10.50;80.70;;;;;;5093699;28;20040;-76
2021/05/18 03:08:39;;;;;;;24.20;15.65;;;10.50;80.70;;;;;;5095104;28;20048;-77
2021/05/18 03:11:08;;;;;;;26.17;15.77;;;10.50;80.70;;;;;;5092914;28;20153;-76
2021/05/18 03:13:34;;;;;;;25.48;16.55;;;10.40;80.80;;;;;;5093285;28;20044;-75
2021/05/18 03:15:59;;;;;;;23.70;16.63;;;10.40;80.80;;;;;;5093036;28;20044;-77
2021/05/18 03:18:27;;;;;;;27.77;17.63;;;10.40;80.80;;;;;;5095204;28;20051;-77
2021/05/18 03:20:52;;;;;;;24.17;15.50;;;10.40;80.80;;;;;;5093314;28;20055;-78
2021/05/18 03:23:18;;;;;;;26.75;16.10;;;10.40;80.80;;;;;;5095516;28;20067;-76
2021/05/18 03:25:44;;;;;;;30.55;18.35;;;10.40;80.90;;;;;;5095745;28;20056;-77
2021/05/18 03:28:10;;;;;;;27.13;16.13;;;10.40;81.00;;;;;;5097455;28;20110;-78
2021/05/18 03:30:50;;;;;;;27.13;16.90;;;10.30;81.00;;;;;;5081232;28;20040;-76
2021/05/18 03:36:01;;;;;;;29.10;16.42;;;10.30;81.00;;;;;;5097242;28;20042;-76
2021/05/18 03:38:48;;;;;;;27.15;16.50;;;10.30;81.10;;;;;;5097495;28;20472;-77
2021/05/18 03:41:21;;;;;;;26.15;15.77;;;10.30;81.10;;;;;;5113448;28;20822;-76
2021/05/18 03:43:55;;;;;;;29.38;17.63;;;10.30;81.10;;;;;;5113932;28;20072;-76
2021/05/18 04:18:18;;;;;;;28.73;17.33;;;10.10;81.60;;;;;;5080532;28;20285;-76
2021/05/18 04:23:25;;;;;;;27.30;16.23;;;10.10;81.70;;;;;;5095681;28;20051;-75
2021/05/18 05:00:50;;;;;;;29.02;17.05;;;10.30;81.90;;;;;;5082287;28;20058;-77
2021/05/18 05:16:12;;;;;;;29.17;17.92;;;10.50;82.30;;;;;;5095254;28;20047;-76
2021/05/18 05:18:38;;;;;;;28.58;17.30;;;10.60;82.40;;;;;;5101039;28;20051;-74
2021/05/18 05:21:06;;;;;;;33.13;16.92;;;10.60;82.30;;;;;;5104347;28;20035;-75
2021/05/18 05:23:32;;;;;;;33.65;18.77;;;10.60;82.30;;;;;;5060816;28;20070;-77
2021/05/18 05:25:57;;;;;;;36.78;18.08;;;10.70;82.30;;;;;;5100290;27;20415;-75
2021/05/18 05:28:23;;;;;;;37.45;19.33;;;10.80;82.60;;;;;;5085466;28;20488;-77
2021/05/18 05:30:50;;;;;;;32.80;19.45;;;10.80;82.30;;;;;;5091031;28;20040;-78
2021/05/18 05:33:15;;;;;;;33.63;18.15;;;10.80;82.30;;;;;;5096871;28;20056;-76
2021/05/18 05:35:42;;;;;;;33.50;18.67;;;10.90;82.60;;;;;;5112570;27;20060;-76
2021/05/18 05:38:08;;;;;;;34.45;19.90;;;10.90;82.50;;;;;;5086321;28;20456;-81
2021/05/18 05:40:34;;;;;;;36.83;20.40;;;11.00;82.60;;;;;;5084060;28;20047;-76
2021/05/18 05:42:59;;;;;;;31.50;19.60;;;11.00;82.80;;;;;;5103356;28;20051;-77
2021/05/18 05:45:25;;;;;;;36.50;21.35;;;11.00;82.80;;;;;;5086912;28;20060;-76
2021/05/18 05:47:51;;;;;;;38.05;20.63;;;11.10;82.90;;;;;;5100084;28;20044;-79
2021/05/18 05:50:17;;;;;;;36.53;22.10;;;11.10;83.40;;;;;;5098376;28;20131;-78
2021/05/18 05:52:44;;;;;;;35.28;20.05;;;11.20;82.60;;;;;;5077372;28;20047;-76
2021/05/18 05:55:10;;;;;;;33.30;20.45;;;11.20;82.70;;;;;;5094908;28;20114;-79
2021/05/18 05:57:36;;;;;;;36.58;20.52;;;11.30;82.60;;;;;;5071307;28;20076;-78
2021/05/18 06:00:09;;;;;;;30.13;19.80;;;11.30;82.60;;;;;;5087061;28;20044;-76
2021/05/18 06:02:35;;;;;;;34.13;20.13;;;11.40;82.20;;;;;;5085165;28;20047;-76
2021/05/18 06:05:01;;;;;;;41.40;21.20;;;11.50;81.80;;;;;;5086400;28;20047;-76
2021/05/18 06:07:27;;;;;;;38.80;21.05;;;11.50;82.00;;;;;;5097920;28;20047;-77
2021/05/18 06:15:35;;;;;;;34.05;18.52;;;11.50;82.20;;;;;;5091372;28;20033;-81
2021/05/18 06:34:48;;;;;;;31.70;18.70;;;11.60;82.70;;;;;;5083192;28;20406;-81
2021/05/18 06:42:44;;;;;;;37.15;20.90;;;11.70;82.60;;;;;;5088294;28;20476;-79
2021/05/18 06:47:54;;;;;;;35.45;20.83;;;11.70;82.80;;;;;;5097765;28;20063;-79
2021/05/18 06:50:28;;;;;;;36.13;22.05;;;11.70;82.70;;;;;;5096828;28;20044;-79
2021/05/18 06:52:55;;;;;;;37.47;22.45;;;11.80;82.80;;;;;;5071175;28;20055;-80
2021/05/18 06:55:25;;;;;;;40.67;21.77;;;11.80;82.50;;;;;;5077269;28;20036;-87
2021/05/18 06:57:56;;;;;;;39.10;22.13;;;11.90;82.50;;;;;;5072475;28;20092;-74
2021/05/18 07:00:21;;;;;;;40.42;24.33;;;11.90;82.60;;;;;;5081723;28;20066;-84
2021/05/18 07:02:49;;;;;;;40.40;23.25;;;12.00;82.60;;;;;;5086999;28;20048;-78
2021/05/18 07:07:42;;;;;;;35.25;22.20;;;12.10;82.10;;;;;;5087530;28;20029;-81
2021/05/18 07:10:09;;;;;;;39.50;23.40;;;12.20;81.90;;;;;;5091334;28;20177;-80
2021/05/18 07:12:36;;;;;;;35.38;20.55;;;12.30;81.90;;;;;;5086936;28;20061;-77
2021/05/18 07:15:03;;;;;;;39.45;21.67;;;12.40;81.70;;;;;;5078357;28;20036;-79
2021/05/18 07:17:29;;;;;;;37.92;21.30;;;12.40;81.90;;;;;;5080332;28;20050;-82
2021/05/18 07:19:55;;;;;;;39.30;20.45;;;12.50;81.40;;;;;;5095317;28;20139;-82
2021/05/18 07:22:20;;;;;;;36.00;21.30;;;12.50;81.20;;;;;;5078449;28;20044;-82
2021/05/18 07:24:46;;;;;;;36.55;21.27;;;12.60;81.10;;;;;;5095439;28;20044;-82
2021/05/18 07:27:12;;;;;;;34.53;21.85;;;12.60;80.90;;;;;;5080135;28;20060;-80
2021/05/18 07:29:38;;;;;;;32.05;19.85;;;12.70;80.80;;;;;;5045969;28;20113;-81
2021/05/18 07:32:04;;;;;;;33.47;19.17;;;12.70;80.60;;;;;;5091051;28;20088;-81
2021/05/18 07:34:30;;;;;;;36.58;19.80;;;12.70;80.50;;;;;;5095949;28;20155;-80
2021/05/18 07:36:56;;;;;;;31.95;19.35;;;12.80;80.20;;;;;;5087411;28;20111;-77
2021/05/18 07:39:22;;;;;;;29.02;18.25;;;12.90;79.90;;;;;;5067543;28;20398;-81
2021/05/18 07:41:47;;;;;;;29.75;18.48;;;13.00;79.70;;;;;;5053819;28;20105;-77
2021/05/18 07:44:13;;;;;;;31.55;17.55;;;13.00;79.50;;;;;;5063550;28;20113;-76
2021/05/18 07:46:41;;;;;;;28.67;17.25;;;13.00;79.40;;;;;;5085321;28;20036;-76
2021/05/18 07:49:12;;;;;;;25.50;17.70;;;13.10;79.20;;;;;;5068838;28;20114;-82
2021/05/18 07:51:55;;;;;;;28.17;17.17;;;13.20;79.00;;;;;;5083119;28;20036;-82
2021/05/18 08:00:18;;;;;;;27.38;16.75;;;13.40;78.40;;;;;;5089117;28;20032;-82
2021/05/18 08:05:31;;;;;;;26.92;15.80;;;13.50;77.90;;;;;;5089672;28;20048;-84
2021/05/18 08:07:57;;;;;;;27.58;17.52;;;13.50;77.60;;;;;;5089802;28;20126;-81
2021/05/18 08:12:57;;;;;;;33.67;17.35;;;13.60;77.20;;;;;;5089196;28;20036;-81
2021/05/18 10:26:58;;;;;;;16.63;11.98;;;15.80;66.80;;;;;;5103306;28;20044;-77
2021/05/18 10:36:30;;;;;;;15.38;11.80;;;15.60;67.80;;;;;;5090486;28;20073;-77
2021/05/18 10:39:22;;;;;;;16.77;11.85;;;15.50;68.00;;;;;;5058862;28;20044;-75
2021/05/18 10:41:49;;;;;;;16.58;12.55;;;15.40;68.20;;;;;;5073990;28;20044;-79
2021/05/18 10:44:14;;;;;;;16.23;11.50;;;15.40;69.10;;;;;;5057541;28;20052;-75
2021/05/18 10:46:50;;;;;;;18.75;12.23;;;15.40;69.20;;;;;;5058825;28;20044;-75
2021/05/18 10:49:32;;;;;;;16.52;12.23;;;15.40;69.40;;;;;;5092365;28;20036;-75
2021/05/18 10:52:02;;;;;;;18.70;13.05;;;15.40;69.60;;;;;;5060227;28;20040;-75
2021/05/18 10:54:30;;;;;;;19.10;13.05;;;15.40;69.80;;;;;;5076904;28;20044;-76
2021/05/18 10:57:02;;;;;;;15.93;12.45;;;15.40;69.90;;;;;;5076347;28;20044;-77
2021/05/18 10:59:32;;;;;;;19.40;12.68;;;15.40;69.90;;;;;;5092881;28;20133;-74
2021/05/18 11:02:06;;;;;;;17.15;11.82;;;15.30;70.60;;;;;;5091186;28;20488;-74
2021/05/18 11:04:33;;;;;;;17.98;12.15;;;15.30;70.00;;;;;;5059008;28;20040;-75
2021/05/18 11:07:01;;;;;;;14.15;10.25;;;15.30;70.20;;;;;;5057728;28;20039;-74
2021/05/18 11:09:27;;;;;;;13.43;9.45;;;15.20;70.40;;;;;;5059141;28;20048;-75
2021/05/18 11:12:12;;;;;;;12.85;9.35;;;15.20;71.30;;;;;;5076991;28;20044;-81
2021/05/18 11:14:43;;;;;;;12.13;8.40;;;15.20;70.60;;;;;;5093097;28;20106;-75
2021/05/18 11:17:14;;;;;;;10.20;7.80;;;15.20;70.70;;;;;;5075909;28;20094;-74
2021/05/18 11:20:12;;;;;;;9.85;6.57;;;15.30;71.50;;;;;;5092682;28;20121;-75
2021/05/18 11:25:31;;;;;;;11.43;8.13;;;15.60;70.70;;;;;;5093348;28;20040;-77
2021/05/18 11:28:11;;;;;;;10.80;8.02;;;15.70;70.50;;;;;;5074258;28;20047;-81
2021/05/18 11:30:38;;;;;;;13.27;9.18;;;15.80;70.30;;;;;;5092253;28;20040;-75
2021/05/18 11:33:04;;;;;;;10.02;8.65;;;16.00;70.90;;;;;;5075229;28;20177;-76
2021/05/18 11:35:30;;;;;;;13.25;7.97;;;16.20;69.90;;;;;;5078900;28;20066;-75
2021/05/18 11:38:00;;;;;;;12.30;7.70;;;16.50;69.90;;;;;;5078378;28;20044;-79
2021/05/18 11:40:26;;;;;;;11.40;7.70;;;16.70;69.20;;;;;;5096012;28;20043;-76
2021/05/18 11:42:52;;;;;;;9.23;6.63;;;16.90;68.40;;;;;;5096736;28;20134;-77
2021/05/18 11:45:19;;;;;;;11.15;7.07;;;17.30;67.50;;;;;;5078155;28;20117;-80
2021/05/18 11:47:46;;;;;;;10.18;5.95;;;17.60;66.70;;;;;;5098686;28;20046;-76
2021/05/18 11:50:26;;;;;;;8.05;5.85;;;17.90;65.70;;;;;;5082753;28;20063;-76
2021/05/18 11:52:53;;;;;;;7.55;4.90;;;18.30;65.10;;;;;;5082628;28;20036;-76
2021/05/18 11:55:27;;;;;;;5.28;4.03;;;18.70;64.10;;;;;;5099696;28;20039;-76
2021/05/18 11:57:54;;;;;;;8.30;4.30;;;19.10;62.80;;;;;;5082984;28;20044;-75
2021/05/18 12:00:20;;;;;;;5.93;4.35;;;19.50;61.70;;;;;;5083078;28;20048;-76
2021/05/18 12:02:46;;;;;;;8.88;5.60;;;19.80;60.00;;;;;;5081310;28;20075;-75
2021/05/18 12:05:12;;;;;;;6.65;4.80;;;20.00;59.20;;;;;;5098615;28;20036;-76
2021/05/18 12:07:38;;;;;;;7.88;5.78;;;20.30;58.50;;;;;;5082210;28;20051;-75
2021/05/18 12:10:07;;;;;;;7.07;5.25;;;20.60;58.00;;;;;;5081292;28;20151;-82
2021/05/18 12:12:37;;;;;;;8.82;6.07;;;20.80;57.90;;;;;;5099365;28;20373;-75
2021/05/18 12:15:06;;;;;;;9.05;5.35;;;21.00;57.00;;;;;;5098681;28;20535;-81
2021/05/18 12:17:33;;;;;;;9.23;5.65;;;21.20;56.60;;;;;;5082116;28;20117;-74
2021/05/18 12:19:59;;;;;;;7.88;6.15;;;21.50;56.20;;;;;;5081996;28;20377;-76
2021/05/18 12:22:25;;;;;;;7.60;6.30;;;21.70;55.50;;;;;;5081892;28;20048;-74
2021/05/18 12:24:51;;;;;;;10.48;8.13;;;21.90;54.90;;;;;;5096038;28;20036;-74
2021/05/18 12:27:17;;;;;;;8.73;6.70;;;22.10;54.10;;;;;;5081529;28;20040;-76
2021/05/18 12:29:45;;;;;;;10.38;7.85;;;22.20;53.70;;;;;;5099211;28;20066;-76
2021/05/18 12:32:21;;;;;;;8.32;7.00;;;22.40;53.40;;;;;;5081390;28;20051;-75
2021/05/18 12:34:55;;;;;;;11.40;7.65;;;22.30;53.00;;;;;;5099263;28;20036;-75
2021/05/18 12:37:47;;;;;;;9.15;6.43;;;22.20;52.50;;;;;;5098231;28;20039;-75
2021/05/18 12:40:19;;;;;;;9.35;7.20;;;22.00;51.60;;;;;;5098274;28;20058;-77
2021/05/18 12:42:46;;;;;;;10.85;7.13;;;21.80;52.70;;;;;;5082689;28;20051;-74
2021/05/18 12:45:24;;;;;;;10.30;6.78;;;21.60;52.90;;;;;;5097315;28;20052;-76
2021/05/18 12:48:00;;;;;;;9.80;7.18;;;21.50;51.50;;;;;;5065606;28;20108;-76
2021/05/18 12:50:38;;;;;;;8.68;6.88;;;21.60;51.60;;;;;;5097153;28;20036;-75
2021/05/18 12:53:04;;;;;;;7.70;5.90;;;21.80;51.30;;;;;;5098219;28;20179;-76
2021/05/18 12:55:30;;;;;;;10.80;6.88;;;21.90;51.80;;;;;;5080502;28;20581;-75
2021/05/18 12:57:57;;;;;;;8.82;7.20;;;21.80;51.30;;;;;;5064181;28;20048;-75
2021/05/18 13:00:44;;;;;;;9.13;6.63;;;21.80;52.20;;;;;;5081426;28;20161;-76
2021/05/18 13:03:17;;;;;;;9.27;7.03;;;21.60;51.20;;;;;;5078396;28;20101;-79
2021/05/18 13:05:44;;;;;;;7.97;6.38;;;21.50;51.40;;;;;;5094628;28;20115;-75
2021/05/18 13:08:15;;;;;;;8.15;6.45;;;21.50;51.30;;;;;;5077647;28;20044;-81
2021/05/18 13:11:04;;;;;;;9.63;6.47;;;21.70;51.40;;;;;;5093635;28;20052;-76
2021/05/18 13:13:36;;;;;;;9.43;7.03;;;21.60;51.20;;;;;;5063239;28;20751;-75
2021/05/18 13:16:09;;;;;;;8.88;6.78;;;21.60;50.90;;;;;;5095239;28;20105;-74
2021/05/18 13:18:37;;;;;;;9.25;6.95;;;21.60;50.50;;;;;;5077369;28;20241;-75
2021/05/18 13:21:03;;;;;;;8.70;6.05;;;21.60;50.80;;;;;;5078774;28;20089;-75
2021/05/18 13:29:43;;;;;;;10.13;7.13;;;21.50;49.70;;;;;;5328169;22;20114;-75
2021/05/18 13:32:12;;;;;;;9.07;7.05;;;21.10;50.50;;;;;;5037400;28;20051;-75
2021/05/18 13:34:43;;;;;;;8.80;6.78;;;21.00;50.80;;;;;;5036585;28;20075;-75
2021/05/18 13:37:11;;;;;;;11.80;8.43;;;20.80;51.60;;;;;;5038170;28;20063;-75
2021/05/18 13:39:47;;;;;;;12.02;9.65;;;20.60;51.20;;;;;;5036106;28;20470;-76
2021/05/18 13:42:18;;;;;;;11.80;8.73;;;20.50;51.10;;;;;;5020407;28;20426;-76
2021/05/18 13:44:53;;;;;;;10.63;8.05;;;20.30;51.20;;;;;;5003741;28;20056;-75
2021/05/18 13:47:24;;;;;;;9.77;7.95;;;20.10;51.20;;;;;;5037413;28;20048;-75
2021/05/18 13:49:50;;;;;;;9.15;7.55;;;20.00;51.20;;;;;;5036127;28;20063;-74
2021/05/18 13:52:16;;;;;;;10.95;7.72;;;19.90;51.70;;;;;;5021038;28;20470;-76
2021/05/18 13:54:42;;;;;;;11.63;7.22;;;19.80;52.10;;;;;;5018818;28;20052;-76
2021/05/18 13:57:07;;;;;;;10.77;7.25;;;19.70;52.00;;;;;;5037979;28;20075;-75
2021/05/18 13:59:34;;;;;;;9.77;6.85;;;19.70;52.30;;;;;;5019883;28;20171;-76
2021/05/18 14:02:00;;;;;;;11.27;7.32;;;19.90;52.10;;;;;;5036279;28;20091;-77
2021/05/18 14:04:26;;;;;;;9.27;6.28;;;20.00;52.10;;;;;;5053834;28;20041;-76
2021/05/18 14:07:21;;;;;;;7.93;5.50;;;20.10;52.10;;;;;;5035889;28;20424;-77
2021/05/18 14:09:47;;;;;;;10.50;5.22;;;20.10;52.00;;;;;;5052096;28;20053;-76
2021/05/18 14:12:13;;;;;;;7.63;5.47;;;20.00;51.40;;;;;;5036811;28;20052;-76
2021/05/18 14:14:38;;;;;;;6.78;5.10;;;19.90;50.60;;;;;;5033595;28;20037;-82
2021/05/18 14:17:04;;;;;;;7.90;5.43;;;19.80;50.50;;;;;;5015556;28;20045;-72
2021/05/18 14:19:30;;;;;;;11.32;6.10;;;19.70;50.70;;;;;;5030770;28;20049;-72
2021/05/18 14:21:56;;;;;;;11.45;6.72;;;19.50;50.70;;;;;;5026365;28;20103;-76
2021/05/18 14:24:35;;;;;;;10.77;7.43;;;19.40;50.80;;;;;;5011816;28;20053;-75
2021/05/18 14:27:01;;;;;;;9.60;7.07;;;19.30;51.20;;;;;;5016816;28;20036;-76
2021/05/18 14:29:27;;;;;;;12.30;8.15;;;19.20;51.60;;;;;;5023616;28;20666;-75
2021/05/18 14:31:54;;;;;;;12.18;7.70;;;19.20;52.00;;;;;;5041424;28;20064;-74
2021/05/18 14:34:20;;;;;;;12.60;9.23;;;19.10;52.40;;;;;;5027189;28;20048;-75
2021/05/18 14:36:45;;;;;;;12.95;8.45;;;19.10;52.80;;;;;;5005977;28;20473;-74
2021/05/18 14:39:12;;;;;;;14.85;8.40;;;19.10;53.10;;;;;;5042175;28;20128;-74
2021/05/18 14:44:27;;;;;;;11.00;6.88;;;19.30;53.40;;;;;;5051887;28;20040;-74
2021/05/18 14:55:07;;;;;;;7.47;4.97;;;19.60;53.10;;;;;;5051613;28;20037;-74
2021/05/18 14:57:33;;;;;;;6.07;4.60;;;19.60;52.60;;;;;;5004823;28;20087;-76
2021/05/18 14:59:59;;;;;;;6.07;4.03;;;19.70;52.30;;;;;;5018146;28;20049;-78
2021/05/18 15:02:25;;;;;;;9.35;3.63;;;19.60;51.90;;;;;;5039303;28;20043;-75
2021/05/18 15:04:51;;;;;;;5.25;3.40;;;19.50;51.90;;;;;;5017979;28;20048;-75
2021/05/18 15:07:17;;;;;;;5.18;3.22;;;19.50;51.70;;;;;;5034899;28;20048;-76
2021/05/18 15:09:43;;;;;;;6.53;3.20;;;19.50;51.10;;;;;;5017740;28;20045;-71
2021/05/18 15:12:09;;;;;;;5.05;3.33;;;19.40;51.10;;;;;;5038992;28;20041;-72
2021/05/18 15:14:35;;;;;;;4.43;3.20;;;19.40;50.90;;;;;;5022676;28;20043;-70
2021/05/18 15:17:02;;;;;;;5.07;2.92;;;19.30;50.90;;;;;;5020670;28;20454;-72
2021/05/18 15:19:29;;;;;;;4.38;3.13;;;19.10;50.50;;;;;;5041919;28;20463;-73
2021/05/18 15:21:58;;;;;;;21.00;4.68;;;19.00;51.00;;;;;;5040170;28;20038;-76
2021/05/18 15:24:25;;;;;;;11.38;3.83;;;19.00;51.80;;;;;;5032017;28;20037;-75
2021/05/18 15:26:51;;;;;;;13.68;3.85;;;18.80;51.60;;;;;;5034130;28;20034;-83
2021/05/18 15:29:17;;;;;;;6.65;4.88;;;18.70;51.50;;;;;;5013404;28;20081;-75
2021/05/18 15:31:43;;;;;;;8.95;4.93;;;18.60;51.90;;;;;;5027004;28;20042;-74
2021/05/18 15:34:09;;;;;;;6.63;3.80;;;18.40;52.10;;;;;;5015511;28;20053;-78
2021/05/18 15:36:34;;;;;;;6.60;4.13;;;18.30;52.30;;;;;;5016945;28;20044;-75
2021/05/18 15:39:05;;;;;;;4.82;2.95;;;18.10;52.40;;;;;;5036492;28;20045;-75
2021/05/18 15:41:31;;;;;;;4.95;3.22;;;18.00;52.80;;;;;;5014539;28;20518;-76
2021/05/18 15:43:56;;;;;;;5.45;2.95;;;17.80;53.30;;;;;;5015705;28;20052;-80
2021/05/18 15:46:22;;;;;;;4.18;2.42;;;17.70;53.80;;;;;;5018819;28;20048;-78
2021/05/18 15:48:48;;;;;;;5.38;2.65;;;17.60;54.60;;;;;;5032131;28;20110;-77
2021/05/18 15:51:16;;;;;;;3.22;2.40;;;17.50;55.50;;;;;;5049748;28;20052;-77
2021/05/18 15:53:42;;;;;;;4.68;2.65;;;17.50;57.20;;;;;;4999937;28;20128;-77
2021/05/18 15:56:08;;;;;;;5.20;2.90;;;17.60;57.40;;;;;;5015684;28;20460;-77
2021/05/18 15:58:34;;;;;;;4.38;2.50;;;17.70;58.20;;;;;;5023813;28;20044;-81
2021/05/18 16:01:00;;;;;;;3.78;2.45;;;17.80;58.20;;;;;;4999140;28;20069;-80
2021/05/18 16:03:26;;;;;;;4.68;2.90;;;18.00;58.20;;;;;;5017628;28;20068;-77
2021/05/18 16:05:52;;;;;;;6.75;4.57;;;18.10;58.30;;;;;;5018196;28;20087;-78
2021/05/18 16:10:59;;;;;;;10.65;4.03;;;18.20;58.40;;;;;;5030098;28;20452;-71
2021/05/18 16:13:25;;;;;;;;;;;18.40;59.20;;;;;;5023571;28;20051;-76
2021/05/18 16:15:51;;;;;;;14.63;9.27;;;18.60;59.70;;;;;;5051569;28;20012;-77
2021/05/18 16:18:16;;;;;;;16.50;11.50;;;18.70;59.00;;;;;;5014701;28;20041;-76
2021/05/18 16:20:45;;;;;;;16.60;12.40;;;18.80;57.90;;;;;;5038433;28;20056;-74
2021/05/18 16:23:11;;;;;;;17.92;14.32;;;18.80;58.40;;;;;;5011281;28;20045;-74
2021/05/18 16:25:37;;;;;;;20.45;14.10;;;18.70;57.80;;;;;;5025403;28;20033;-75
2021/05/18 16:28:03;;;;;;;17.48;14.13;;;18.60;58.10;;;;;;5008486;28;20033;-80
2021/05/18 16:30:29;;;;;;;19.25;14.55;;;18.50;58.10;;;;;;5012833;28;20138;-73
2021/05/18 16:32:54;;;;;;;22.08;14.52;;;18.50;58.20;;;;;;5014827;28;20499;-74
2021/05/18 16:35:20;;;;;;;24.45;16.42;;;18.40;58.20;;;;;;5015988;28;20094;-75
2021/05/18 16:37:46;;;;;;;22.17;15.25;;;18.40;58.30;;;;;;5016817;28;20042;-75
2021/05/18 16:40:13;;;;;;;21.70;15.75;;;18.40;58.30;;;;;;5015909;28;20045;-75
2021/05/18 16:42:39;;;;;;;21.17;16.27;;;18.30;58.50;;;;;;5033917;28;20045;-76
2021/05/18 16:45:06;;;;;;;23.50;16.95;;;18.30;58.60;;;;;;5016288;28;20038;-79
2021/05/18 16:47:32;;;;;;;22.35;17.25;;;18.20;58.60;;;;;;5016620;28;20044;-75
2021/05/18 16:49:58;;;;;;;24.27;17.90;;;18.20;58.60;;;;;;5019273;28;20437;-76
2021/05/18 16:52:24;;;;;;;22.33;16.23;;;18.10;58.50;;;;;;5019066;28;20048;-75
2021/05/18 16:54:52;;;;;;;20.80;15.73;;;18.20;58.50;;;;;;5014139;28;20045;-75
2021/05/18 16:57:18;;;;;;;19.05;14.18;;;18.10;58.50;;;;;;5017331;28;20426;-76
2021/05/18 16:59:44;;;;;;;20.67;14.65;;;18.20;58.50;;;;;;5034147;28;20052;-74
2021/05/18 17:02:10;;;;;;;19.60;13.68;;;18.20;58.50;;;;;;5021171;28;20048;-78
2021/05/18 17:04:43;;;;;;;19.05;13.82;;;18.20;58.20;;;;;;5017181;28;20045;-75
2021/05/18 17:07:09;;;;;;;17.63;13.80;;;18.20;58.10;;;;;;5044281;28;20525;-80
2021/05/18 17:09:35;;;;;;;16.95;12.02;;;18.20;58.00;;;;;;5034338;28;20172;-75
2021/05/18 17:12:05;;;;;;;18.23;12.60;;;18.20;57.90;;;;;;5024547;28;20474;-75
2021/05/18 17:14:33;;;;;;;21.23;13.98;;;18.30;57.90;;;;;;4999959;28;20430;-75
2021/05/18 17:16:58;;;;;;;18.92;13.55;;;18.30;57.80;;;;;;5046397;28;20032;-75
2021/05/18 17:19:24;;;;;;;17.58;12.00;;;18.30;57.50;;;;;;5016846;28;20479;-75
2021/05/18 17:21:50;;;;;;;15.15;12.18;;;18.30;57.50;;;;;;5019463;28;20056;-75
2021/05/18 17:24:16;;;;;;;17.15;11.95;;;18.20;57.40;;;;;;5013648;28;20409;-74
2021/05/18 17:26:42;;;;;;;15.90;10.85;;;18.20;57.50;;;;;;5014502;28;20044;-75
2021/05/18 17:29:07;;;;;;;16.20;11.25;;;18.10;57.40;;;;;;5031051;28;21631;-75
2021/05/18 17:31:33;;;;;;;16.80;12.05;;;18.10;57.40;;;;;;5025884;28;20473;-73
2021/05/18 17:33:59;;;;;;;15.50;11.43;;;18.10;57.50;;;;;;5024016;28;20049;-74
2021/05/18 17:36:27;;;;;;;14.70;10.63;;;18.10;57.60;;;;;;5019940;28;20052;-75
2021/05/18 17:38:55;;;;;;;16.10;10.65;;;18.10;57.60;;;;;;5032366;28;20071;-73
2021/05/18 17:41:22;;;;;;;15.50;10.93;;;18.00;57.60;;;;;;5028523;28;20071;-74
2021/05/18 17:43:53;;;;;;;12.90;9.68;;;18.00;57.60;;;;;;5021724;28;20143;-73
2021/05/18 17:46:18;;;;;;;15.30;10.10;;;17.90;57.50;;;;;;5009741;28;20053;-74
2021/05/18 17:48:44;;;;;;;15.25;8.80;;;17.90;57.70;;;;;;5008783;28;20041;-73
2021/05/18 17:51:10;;;;;;;11.35;8.13;;;17.80;57.70;;;;;;5042812;28;20116;-75